Time;durP1;ratioP1;P1;durP2;ratioP2;P2;SDS_P1;SDS_P2;PMS_P1;PMS_P2;Temp;Humidity;BMP_temperature;BMP_pressure;BME280_temperature;BME280_humidity;BME280_pressure;Samples;Min_cycle;Max_cycle;Signal;HPM_P1;HPM_P2
2022/07/27 00:01:09;;;;;;;3.13;1.27;;;;;;;;;;4977578;28;20257;-74
2022/07/27 00:03:38;;;;;;;2.30;1.40;;;;;;;;;;4977037;28;20202;-74
2022/07/27 00:06:06;;;;;;;3.57;1.27;;;;;;;;;;4976798;28;20628;-74
2022/07/27 00:08:35;;;;;;;5.90;1.67;;;;;;;;;;4976946;28;20233;-74
2022/07/27 00:11:05;;;;;;;6.10;1.60;;;;;;;;;;4977814;28;20237;-74
2022/07/27 00:13:33;;;;;;;3.83;1.57;;;;;;;;;;4976503;28;20206;-74
2022/07/27 00:16:02;;;;;;;4.43;1.50;;;;;;;;;;4976005;28;20613;-74
2022/07/27 00:18:30;;;;;;;2.53;1.33;;;;;;;;;;4976725;28;20266;-74
2022/07/27 00:21:00;;;;;;;2.50;1.50;;;;;;;;;;4976641;28;20209;-74
2022/07/27 00:23:28;;;;;;;3.53;1.50;;;;;;;;;;4976743;28;20214;-74
2022/07/27 00:25:57;;;;;;;3.70;1.60;;;;;;;;;;4975570;28;20213;-74
2022/07/27 00:28:27;;;;;;;2.80;1.50;;;;;;;;;;4965147;28;20237;-74
2022/07/27 00:30:55;;;;;;;3.23;1.50;;;;;;;;;;4976660;28;20345;-74
2022/07/27 00:33:24;;;;;;;3.80;1.33;;;;;;;;;;4976312;28;20667;-74
2022/07/27 00:35:52;;;;;;;3.33;1.70;;;;;;;;;;4975931;28;20205;-74
2022/07/27 00:38:20;;;;;;;2.17;1.47;;;;;;;;;;4976142;28;20300;-74
2022/07/27 00:40:49;;;;;;;2.87;1.40;;;;;;;;;;4975529;28;20249;-74
2022/07/27 00:43:17;;;;;;;5.87;1.60;;;;;;;;;;4976055;28;20214;-74
2022/07/27 00:45:47;;;;;;;3.00;1.60;;;;;;;;;;4976268;28;20209;-74
2022/07/27 00:48:16;;;;;;;2.80;1.63;;;;;;;;;;4975700;28;20233;-74
2022/07/27 00:50:44;;;;;;;3.73;1.83;;;;;;;;;;4975043;28;20280;-74
2022/07/27 00:53:13;;;;;;;4.57;1.77;;;;;;;;;;4976484;28;20214;-74
2022/07/27 00:55:41;;;;;;;5.33;1.80;;;;;;;;;;4976084;28;20261;-74
2022/07/27 00:58:10;;;;;;;3.53;1.47;;;;;;;;;;4975776;28;20233;-74
2022/07/27 01:00:39;;;;;;;4.00;1.57;;;;;;;;;;4976103;28;20202;-74
2022/07/27 01:03:08;;;;;;;6.27;1.90;;;;;;;;;;4976220;28;20216;-74
2022/07/27 01:05:38;;;;;;;2.93;1.80;;;;;;;;;;4975914;28;20233;-74
2022/07/27 01:08:11;;;;;;;3.47;1.87;;;;;;;;;;4976342;28;20629;-74
2022/07/27 01:10:40;;;;;;;5.10;2.20;;;;;;;;;;4976096;28;20262;-74
2022/07/27 01:13:08;;;;;;;6.40;2.27;;;;;;;;;;4975561;28;20674;-74
2022/07/27 01:15:40;;;;;;;5.93;2.20;;;;;;;;;;4975100;28;20581;-74
2022/07/27 01:18:13;;;;;;;7.40;1.97;;;;;;;;;;4975710;28;20308;-74
2022/07/27 01:20:43;;;;;;;4.33;1.97;;;;;;;;;;4974749;28;20197;-74
2022/07/27 01:23:13;;;;;;;5.73;1.70;;;;;;;;;;4975983;28;20213;-74
2022/07/27 01:25:42;;;;;;;3.90;2.07;;;;;;;;;;4975204;28;20241;-74
2022/07/27 01:28:10;;;;;;;7.50;1.80;;;;;;;;;;4975660;28;20687;-74
2022/07/27 01:30:39;;;;;;;4.20;2.00;;;;;;;;;;4975980;28;20222;-74
2022/07/27 01:33:08;;;;;;;5.90;2.20;;;;;;;;;;4975410;28;20233;-74
2022/07/27 01:35:37;;;;;;;5.10;1.70;;;;;;;;;;4974047;28;20213;-75
2022/07/27 01:38:06;;;;;;;5.00;2.03;;;;;;;;;;4975243;28;20225;-75
2022/07/27 01:40:36;;;;;;;2.90;1.90;;;;;;;;;;4975328;28;20248;-75
2022/07/27 01:43:05;;;;;;;4.13;2.03;;;;;;;;;;4975234;28;20213;-74
2022/07/27 01:45:33;;;;;;;3.33;1.80;;;;;;;;;;4975401;28;20209;-74
2022/07/27 01:48:02;;;;;;;3.40;1.67;;;;;;;;;;4975297;28;20226;-74
2022/07/27 01:50:30;;;;;;;3.97;1.83;;;;;;;;;;4974446;28;20292;-74
2022/07/27 01:52:59;;;;;;;4.83;2.20;;;;;;;;;;4974747;28;20261;-74
2022/07/27 01:55:27;;;;;;;3.80;1.77;;;;;;;;;;4974791;28;20545;-74
2022/07/27 01:58:08;;;;;;;3.77;1.90;;;;;;;;;;4973612;28;20229;-74
2022/07/27 02:00:37;;;;;;;5.47;2.20;;;;;;;;;;4975435;28;20245;-74
2022/07/27 02:03:06;;;;;;;3.67;1.97;;;;;;;;;;4974724;28;20553;-74
2022/07/27 02:05:35;;;;;;;7.50;2.40;;;;;;;;;;4974297;28;20210;-74
2022/07/27 02:08:04;;;;;;;4.80;2.10;;;;;;;;;;4976037;28;20264;-74
2022/07/27 02:10:33;;;;;;;5.17;1.93;;;;;;;;;;4975482;28;20256;-74
2022/07/27 02:13:00;;;;;;;2.83;1.97;;;;;;;;;;4975123;28;20202;-74
2022/07/27 02:15:50;;;;;;;3.63;2.37;;;;;;;;;;4955448;29;20211;-74
2022/07/27 02:18:22;;;;;;;5.63;2.20;;;;;;;;;;4963366;28;20235;-74
2022/07/27 02:21:04;;;;;;;3.07;1.90;;;;;;;;;;4974605;28;20214;-74
2022/07/27 02:23:33;;;;;;;5.10;2.20;;;;;;;;;;4975683;28;20574;-74
2022/07/27 02:26:01;;;;;;;5.30;2.27;;;;;;;;;;4974695;28;20206;-74
2022/07/27 02:28:30;;;;;;;5.13;2.37;;;;;;;;;;4975063;28;20238;-74
2022/07/27 02:31:00;;;;;;;5.40;2.83;;;;;;;;;;4975004;28;20691;-74
2022/07/27 02:33:28;;;;;;;5.37;2.90;;;;;;;;;;4973961;28;20566;-74
2022/07/27 02:35:56;;;;;;;4.60;2.37;;;;;;;;;;4955354;29;20257;-74
2022/07/27 02:38:25;;;;;;;2.97;2.00;;;;;;;;;;4955983;28;20233;-74
2022/07/27 02:40:54;;;;;;;3.63;1.93;;;;;;;;;;4975370;28;20202;-74
2022/07/27 02:43:22;;;;;;;4.00;2.27;;;;;;;;;;4979152;28;20586;-74
2022/07/27 02:45:51;;;;;;;6.23;2.30;;;;;;;;;;4978331;28;20233;-74
2022/07/27 02:48:20;;;;;;;7.37;2.20;;;;;;;;;;4977388;28;20233;-74
2022/07/27 02:50:49;;;;;;;5.30;2.13;;;;;;;;;;4977746;28;20229;-75
2022/07/27 02:53:17;;;;;;;3.73;2.10;;;;;;;;;;4978330;28;20213;-74
2022/07/27 02:55:46;;;;;;;5.70;2.00;;;;;;;;;;4978375;28;20209;-75
2022/07/27 02:58:14;;;;;;;4.87;2.50;;;;;;;;;;4978676;28;20241;-74
2022/07/27 03:00:42;;;;;;;4.50;2.60;;;;;;;;;;4977589;28;20206;-74
2022/07/27 03:03:11;;;;;;;4.60;2.10;;;;;;;;;;4978433;28;20205;-74
2022/07/27 03:05:41;;;;;;;3.53;2.17;;;;;;;;;;4977973;28;20202;-74
2022/07/27 03:08:09;;;;;;;4.80;2.10;;;;;;;;;;4977499;28;20229;-74
2022/07/27 03:10:38;;;;;;;6.07;2.10;;;;;;;;;;4978150;28;20222;-74
2022/07/27 03:13:07;;;;;;;4.77;2.30;;;;;;;;;;4977524;28;20202;-74
2022/07/27 03:15:35;;;;;;;4.50;2.20;;;;;;;;;;4977855;28;20219;-74
2022/07/27 03:18:04;;;;;;;3.70;2.10;;;;;;;;;;4977626;28;20230;-74
2022/07/27 03:20:32;;;;;;;4.87;2.47;;;;;;;;;;4977527;28;20202;-74
2022/07/27 03:23:02;;;;;;;4.60;2.20;;;;;;;;;;4977462;28;20217;-74
2022/07/27 03:25:31;;;;;;;5.10;2.60;;;;;;;;;;4977821;28;20217;-74
2022/07/27 03:27:59;;;;;;;2.63;2.20;;;;;;;;;;4977023;28;20226;-74
2022/07/27 03:30:32;;;;;;;4.00;2.30;;;;;;;;;;4977805;28;20640;-74
2022/07/27 03:33:00;;;;;;;3.90;1.97;;;;;;;;;;4977515;28;20556;-74
2022/07/27 03:35:29;;;;;;;6.03;2.40;;;;;;;;;;4976516;28;20687;-74
2022/07/27 03:37:57;;;;;;;3.80;2.23;;;;;;;;;;4978131;28;20230;-74
2022/07/27 03:40:28;;;;;;;5.13;2.40;;;;;;;;;;4978109;28;20209;-74
2022/07/27 03:42:57;;;;;;;5.77;2.53;;;;;;;;;;4977061;28;20301;-74
2022/07/27 03:45:25;;;;;;;5.00;2.40;;;;;;;;;;4976678;28;20210;-74
2022/07/27 03:47:54;;;;;;;5.87;2.50;;;;;;;;;;4977833;28;20233;-74
2022/07/27 03:50:22;;;;;;;3.57;2.40;;;;;;;;;;4976062;28;20284;-74
2022/07/27 03:52:54;;;;;;;5.30;2.37;;;;;;;;;;4977352;28;20202;-74
2022/07/27 03:55:22;;;;;;;6.37;2.33;;;;;;;;;;4975962;28;20208;-74
2022/07/27 03:57:52;;;;;;;4.50;2.10;;;;;;;;;;4977196;28;20236;-74
2022/07/27 04:00:21;;;;;;;4.43;2.17;;;;;;;;;;4976744;28;20198;-74
2022/07/27 04:02:49;;;;;;;3.13;2.20;;;;;;;;;;4977354;28;20209;-74
2022/07/27 04:05:19;;;;;;;4.33;2.07;;;;;;;;;;4975897;28;20210;-74
2022/07/27 04:07:47;;;;;;;2.53;1.70;;;;;;;;;;4976646;28;20225;-74
2022/07/27 04:10:22;;;;;;;5.20;2.37;;;;;;;;;;4976389;28;20221;-74
2022/07/27 04:12:54;;;;;;;2.90;2.10;;;;;;;;;;4976420;28;20690;-74
2022/07/27 04:15:24;;;;;;;4.97;2.40;;;;;;;;;;4976723;28;20202;-74
2022/07/27 04:17:52;;;;;;;5.90;3.03;;;;;;;;;;4976563;28;20226;-74
2022/07/27 04:20:25;;;;;;;4.67;2.33;;;;;;;;;;4975697;28;20289;-74
2022/07/27 04:22:54;;;;;;;4.00;2.20;;;;;;;;;;4976641;28;20670;-74
2022/07/27 04:25:22;;;;;;;5.00;2.30;;;;;;;;;;4976727;28;20210;-74
2022/07/27 04:27:53;;;;;;;4.63;2.47;;;;;;;;;;4974718;28;20592;-74
2022/07/27 04:30:23;;;;;;;3.90;2.40;;;;;;;;;;4975377;28;20285;-74
2022/07/27 04:32:52;;;;;;;6.17;2.87;;;;;;;;;;4976078;28;20210;-74
2022/07/27 04:35:20;;;;;;;5.40;3.00;;;;;;;;;;4975614;28;20622;-74
2022/07/27 04:37:53;;;;;;;6.17;2.90;;;;;;;;;;4975702;28;20228;-74
2022/07/27 04:40:27;;;;;;;4.07;2.60;;;;;;;;;;4976576;28;20220;-74
2022/07/27 04:42:55;;;;;;;4.23;2.60;;;;;;;;;;4974102;28;20202;-74
2022/07/27 04:45:25;;;;;;;4.07;2.70;;;;;;;;;;4976618;28;20210;-74
2022/07/27 04:47:54;;;;;;;7.57;2.93;;;;;;;;;;4975598;28;20222;-74
2022/07/27 04:50:22;;;;;;;4.07;2.70;;;;;;;;;;4974857;28;20202;-74
2022/07/27 04:52:50;;;;;;;6.03;3.10;;;;;;;;;;4975622;28;20214;-74
2022/07/27 04:55:19;;;;;;;3.80;2.90;;;;;;;;;;4975876;28;20616;-74
2022/07/27 04:57:47;;;;;;;4.50;2.80;;;;;;;;;;4972844;28;20234;-75
2022/07/27 05:00:16;;;;;;;4.53;2.90;;;;;;;;;;4976460;28;20217;-74
2022/07/27 05:02:46;;;;;;;4.73;2.60;;;;;;;;;;4974912;28;20207;-74
2022/07/27 05:05:14;;;;;;;6.23;3.40;;;;;;;;;;4976137;28;20206;-74
2022/07/27 05:07:43;;;;;;;5.07;3.40;;;;;;;;;;4975641;28;20634;-75
2022/07/27 05:10:11;;;;;;;4.73;3.00;;;;;;;;;;4975799;28;20673;-75
2022/07/27 05:12:47;;;;;;;8.83;4.27;;;;;;;;;;4975350;28;20220;-74
2022/07/27 05:15:15;;;;;;;6.73;3.17;;;;;;;;;;4975832;28;20221;-75
2022/07/27 05:17:44;;;;;;;8.00;3.13;;;;;;;;;;4976047;28;20225;-74
2022/07/27 05:20:14;;;;;;;8.00;3.10;;;;;;;;;;4974816;28;20202;-75
2022/07/27 05:22:42;;;;;;;4.70;3.20;;;;;;;;;;4956943;29;20223;-75
2022/07/27 05:25:11;;;;;;;5.70;2.90;;;;;;;;;;4968480;28;20213;-74
2022/07/27 05:27:40;;;;;;;6.43;3.13;;;;;;;;;;4975486;28;20229;-74
2022/07/27 05:30:22;;;;;;;9.20;3.20;;;;;;;;;;4975354;28;20288;-75
2022/07/27 05:32:50;;;;;;;3.50;3.03;;;;;;;;;;4975822;28;20228;-75
2022/07/27 05:35:20;;;;;;;6.30;3.30;;;;;;;;;;4974462;28;20249;-75
2022/07/27 05:37:48;;;;;;;4.60;2.93;;;;;;;;;;4974936;28;20230;-75
2022/07/27 05:40:17;;;;;;;7.37;2.67;;;;;;;;;;4975332;28;20212;-75
2022/07/27 05:42:45;;;;;;;4.73;2.80;;;;;;;;;;4975540;28;20205;-75
2022/07/27 05:45:14;;;;;;;5.30;3.20;;;;;;;;;;4975161;28;20209;-75
2022/07/27 05:47:42;;;;;;;7.93;3.20;;;;;;;;;;4975600;28;20229;-75
2022/07/27 05:50:11;;;;;;;7.90;2.90;;;;;;;;;;4974471;28;20213;-75
2022/07/27 05:52:40;;;;;;;6.17;2.60;;;;;;;;;;4974748;28;20229;-75
2022/07/27 05:55:09;;;;;;;6.27;2.97;;;;;;;;;;4976457;28;20217;-75
2022/07/27 05:57:39;;;;;;;5.63;2.60;;;;;;;;;;4975692;28;20233;-75
2022/07/27 06:00:09;;;;;;;6.63;2.60;;;;;;;;;;4975087;28;20217;-74
2022/07/27 06:02:37;;;;;;;5.80;2.57;;;;;;;;;;4970691;28;20667;-74
2022/07/27 06:05:06;;;;;;;8.10;2.63;;;;;;;;;;4973359;28;20213;-75
2022/07/27 06:07:57;;;;;;;3.97;2.17;;;;;;;;;;4975334;28;20280;-76
2022/07/27 06:10:26;;;;;;;4.50;2.10;;;;;;;;;;4974673;28;20205;-74
2022/07/27 06:12:54;;;;;;;5.60;2.30;;;;;;;;;;4974101;28;20284;-75
2022/07/27 06:15:23;;;;;;;8.27;2.00;;;;;;;;;;4974271;28;20206;-75
2022/07/27 06:17:52;;;;;;;5.60;2.40;;;;;;;;;;4972833;28;20230;-75
2022/07/27 06:20:22;;;;;;;5.83;2.60;;;;;;;;;;4974860;28;20213;-75
2022/07/27 06:22:52;;;;;;;8.37;2.30;;;;;;;;;;4974741;28;20300;-74
2022/07/27 06:25:21;;;;;;;6.00;1.90;;;;;;;;;;4974447;28;20213;-75
2022/07/27 06:27:49;;;;;;;6.63;2.10;;;;;;;;;;4974349;28;20232;-75
2022/07/27 06:30:19;;;;;;;6.70;1.97;;;;;;;;;;4972884;28;20674;-75
2022/07/27 06:32:48;;;;;;;4.53;1.60;;;;;;;;;;4974607;28;20590;-75
2022/07/27 06:35:16;;;;;;;3.87;1.70;;;;;;;;;;4972010;28;20653;-75
2022/07/27 06:37:51;;;;;;;5.27;1.80;;;;;;;;;;4973911;28;20221;-74
2022/07/27 06:40:21;;;;;;;4.83;1.70;;;;;;;;;;4974338;28;20214;-75
2022/07/27 06:42:54;;;;;;;5.37;1.70;;;;;;;;;;4973703;28;20201;-74
2022/07/27 06:45:22;;;;;;;3.80;1.63;;;;;;;;;;4973357;28;20206;-75
2022/07/27 06:47:51;;;;;;;6.93;2.00;;;;;;;;;;4973286;28;20226;-74
2022/07/27 06:50:20;;;;;;;6.07;1.93;;;;;;;;;;4974640;28;20253;-75
2022/07/27 06:52:48;;;;;;;4.13;1.40;;;;;;;;;;4974467;28;20218;-74
2022/07/27 06:55:17;;;;;;;6.80;1.87;;;;;;;;;;4974413;28;20205;-75
2022/07/27 06:57:47;;;;;;;3.97;1.70;;;;;;;;;;4973259;28;20226;-75
2022/07/27 07:00:15;;;;;;;3.50;1.50;;;;;;;;;;4964783;28;20685;-75
2022/07/27 07:02:54;;;;;;;5.22;1.40;;;;;;;;;;4972610;28;20206;-75
2022/07/27 07:05:22;;;;;;;3.30;1.45;;;;;;;;;;4973976;28;20201;-75
2022/07/27 07:07:51;;;;;;;6.53;1.48;;;;;;;;;;4973244;28;20305;-75
2022/07/27 07:10:20;;;;;;;6.38;1.83;;;;;;;;;;4973477;28;20214;-74
2022/07/27 07:12:54;;;;;;;4.38;1.40;;;;;;;;;;4974129;28;20581;-74
2022/07/27 07:15:24;;;;;;;5.05;2.00;;;;;;;;;;4973253;28;20225;-75
2022/07/27 07:17:53;;;;;;;4.10;1.60;;;;;;;;;;4973231;28;20232;-74
2022/07/27 07:20:21;;;;;;;4.78;1.40;;;;;;;;;;4973039;28;20213;-75
2022/07/27 07:22:50;;;;;;;8.25;1.55;;;;;;;;;;4973476;28;20232;-75
2022/07/27 07:25:18;;;;;;;7.25;1.65;;;;;;;;;;4975416;28;20264;-75
2022/07/27 07:27:47;;;;;;;5.03;1.73;;;;;;;;;;4977583;28;20638;-74
2022/07/27 07:30:16;;;;;;;4.72;1.50;;;;;;;;;;4976048;28;20660;-75
2022/07/27 07:32:45;;;;;;;3.25;1.20;;;;;;;;;;4977326;28;20221;-75
2022/07/27 07:35:13;;;;;;;3.88;1.30;;;;;;;;;;4976858;28;20320;-75
2022/07/27 07:37:42;;;;;;;4.63;1.30;;;;;;;;;;4977335;28;20264;-75
2022/07/27 07:40:11;;;;;;;4.22;1.50;;;;;;;;;;4977355;28;20206;-75
2022/07/27 07:43:01;;;;;;;8.63;1.65;;;;;;;;;;4977386;28;20205;-75
2022/07/27 07:45:32;;;;;;;4.43;1.10;;;;;;;;;;4977180;28;20241;-75
2022/07/27 07:48:00;;;;;;;6.80;1.38;;;;;;;;;;4975315;28;20230;-75
2022/07/27 07:50:29;;;;;;;2.47;1.40;;;;;;;;;;4973855;28;20206;-75
2022/07/27 07:52:57;;;;;;;4.50;1.35;;;;;;;;;;4972743;28;20228;-75
2022/07/27 07:55:27;;;;;;;3.72;1.20;;;;;;;;;;4966548;28;20205;-75
2022/07/27 07:57:58;;;;;;;2.45;1.10;;;;;;;;;;4966106;28;20583;-75
2022/07/27 08:00:27;;;;;;;4.97;1.40;;;;;;;;;;4972462;28;20214;-74
2022/07/27 08:02:57;;;;;;;5.50;1.10;;;;;;;;;;4976502;28;20214;-75
2022/07/27 08:05:26;;;;;;;4.93;1.40;;;;;;;;;;4973787;28;20205;-75
2022/07/27 08:07:55;;;;;;;5.55;1.35;;;;;;;;;;4961955;28;20221;-75
2022/07/27 08:10:23;;;;;;;1.85;1.05;;;;;;;;;;4963603;28;20203;-75
2022/07/27 08:12:53;;;;;;;4.75;1.25;;;;;;;;;;4973331;28;20230;-75
2022/07/27 08:15:22;;;;;;;4.13;1.08;;;;;;;;;;4972414;28;20205;-75
2022/07/27 08:18:05;;;;;;;5.43;1.15;;;;;;;;;;4975263;28;20230;-75
2022/07/27 08:20:34;;;;;;;4.82;1.08;;;;;;;;;;4975312;28;20224;-75
2022/07/27 08:23:03;;;;;;;5.13;1.17;;;;;;;;;;4976432;28;20213;-78
2022/07/27 08:25:32;;;;;;;3.75;1.20;;;;;;;;;;4976199;28;20209;-79
2022/07/27 08:28:00;;;;;;;2.75;1.20;;;;;;;;;;4976629;28;20241;-78
2022/07/27 08:30:30;;;;;;;2.50;1.45;;;;;;;;;;4976925;28;20698;-77
2022/07/27 08:33:01;;;;;;;2.00;1.00;;;;;;;;;;4976224;28;20233;-77
2022/07/27 08:35:31;;;;;;;4.47;1.25;;;;;;;;;;4976087;28;20214;-78
2022/07/27 08:38:00;;;;;;;2.75;1.08;;;;;;;;;;4975863;28;20715;-77
2022/07/27 08:40:29;;;;;;;3.50;1.30;;;;;;;;;;4957173;29;20210;-78
2022/07/27 08:43:09;;;;;;;3.50;1.05;;;;;;;;;;4969575;28;20202;-78
2022/07/27 08:45:40;;;;;;;1.73;0.90;;;;;;;;;;4975236;28;20202;-79
2022/07/27 08:48:12;;;;;;;2.65;1.00;;;;;;;;;;4976185;28;20226;-79
2022/07/27 08:50:42;;;;;;;1.48;0.93;;;;;;;;;;4976357;28;20205;-79
2022/07/27 08:53:12;;;;;;;5.10;1.13;;;;;;;;;;4976199;28;20221;-80
2022/07/27 08:55:41;;;;;;;3.90;0.95;;;;;;;;;;4976207;28;20750;-77
2022/07/27 08:58:10;;;;;;;2.95;1.08;;;;;;;;;;4975397;28;20228;-78
2022/07/27 09:00:39;;;;;;;3.85;1.23;;;;;;;;;;4976698;28;20206;-78
2022/07/27 09:03:08;;;;;;;2.80;0.95;;;;;;;;;;4976518;28;20202;-78
2022/07/27 09:05:45;;;;;;;2.42;0.95;;;;;;;;;;4975899;28;20619;-78
2022/07/27 09:08:14;;;;;;;3.80;1.40;;;;;;;;;;4959189;28;20313;-78
2022/07/27 09:10:43;;;;;;;3.85;1.23;;;;;;;;;;4956876;29;20215;-77
2022/07/27 09:13:18;;;;;;;7.05;1.20;;;;;;;;;;4971958;28;20245;-78
2022/07/27 09:15:47;;;;;;;6.18;1.30;;;;;;;;;;4975473;28;20292;-77
2022/07/27 09:18:36;;;;;;;4.18;1.40;;;;;;;;;;4976016;28;20292;-78
2022/07/27 09:21:10;;;;;;;1.92;0.90;;;;;;;;;;4975651;28;20256;-77
2022/07/27 09:23:39;;;;;;;4.18;1.13;;;;;;;;;;4975828;28;20190;-78
2022/07/27 09:26:11;;;;;;;2.92;1.30;;;;;;;;;;4975727;28;20213;-78
2022/07/27 09:28:58;;;;;;;2.65;1.20;;;;;;;;;;4976321;28;20190;-78
2022/07/27 09:31:27;;;;;;;4.10;1.10;;;;;;;;;;4975985;28;20221;-78
2022/07/27 09:33:56;;;;;;;3.47;1.00;;;;;;;;;;4975972;28;20246;-78
2022/07/27 09:36:28;;;;;;;4.13;1.15;;;;;;;;;;4975480;28;20714;-78
2022/07/27 09:38:58;;;;;;;3.55;1.20;;;;;;;;;;4975223;28;20197;-77
2022/07/27 09:41:41;;;;;;;2.03;1.10;;;;;;;;;;4975230;28;20222;-76
2022/07/27 09:44:10;;;;;;;3.58;1.27;;;;;;;;;;4974962;28;20198;-76
2022/07/27 09:46:58;;;;;;;5.63;1.60;;;;;;;;;;4973487;28;20226;-76
2022/07/27 09:49:28;;;;;;;3.42;1.67;;;;;;;;;;4973788;28;20296;-76
2022/07/27 09:51:58;;;;;;;3.55;1.30;;;;;;;;;;4974065;28;20209;-75
2022/07/27 09:54:41;;;;;;;2.35;1.13;;;;;;;;;;4973655;28;20297;-76
2022/07/27 09:57:10;;;;;;;4.10;1.08;;;;;;;;;;4973857;28;20241;-76
2022/07/27 09:59:38;;;;;;;4.00;1.00;;;;;;;;;;4973725;28;20214;-76
2022/07/27 10:02:07;;;;;;;2.78;1.10;;;;;;;;;;4970429;28;20203;-76
2022/07/27 10:04:36;;;;;;;2.33;1.20;;;;;;;;;;4955748;29;20206;-77
2022/07/27 10:07:06;;;;;;;3.22;1.10;;;;;;;;;;4955669;28;20699;-76
2022/07/27 10:09:42;;;;;;;2.53;1.00;;;;;;;;;;4970979;28;20197;-76
2022/07/27 10:12:10;;;;;;;2.20;1.00;;;;;;;;;;4974949;28;20206;-76
2022/07/27 10:14:39;;;;;;;2.83;1.30;;;;;;;;;;4975046;28;20233;-76
2022/07/27 10:17:09;;;;;;;2.25;1.25;;;;;;;;;;4975071;28;20229;-74
2022/07/27 10:19:44;;;;;;;3.17;1.10;;;;;;;;;;4971789;28;20206;-74
2022/07/27 10:22:14;;;;;;;3.42;1.30;;;;;;;;;;4974550;28;20218;-74
2022/07/27 10:24:44;;;;;;;3.17;1.40;;;;;;;;;;4974507;28;20201;-75
2022/07/27 10:27:20;;;;;;;1.30;0.77;;;;;;;;;;4976426;28;20249;-75
2022/07/27 10:29:50;;;;;;;3.25;1.05;;;;;;;;;;4969845;28;20210;-74
2022/07/27 10:32:25;;;;;;;2.20;1.00;;;;;;;;;;4959573;28;20663;-75
2022/07/27 10:34:54;;;;;;;3.65;1.30;;;;;;;;;;4959709;28;20595;-74
2022/07/27 10:37:27;;;;;;;5.65;1.50;;;;;;;;;;4973345;28;20596;-75
2022/07/27 10:42:39;;;;;;;4.63;1.23;;;;;;;;;;4972797;28;20671;-74
2022/07/27 10:45:09;;;;;;;3.85;1.33;;;;;;;;;;4973024;28;20209;-74
2022/07/27 10:47:41;;;;;;;5.20;1.20;;;;;;;;;;4971712;28;20273;-74
2022/07/27 10:50:20;;;;;;;2.92;1.17;;;;;;;;;;4973807;28;20209;-74
2022/07/27 10:52:51;;;;;;;3.00;1.10;;;;;;;;;;4973637;28;20205;-74
2022/07/27 10:55:37;;;;;;;3.78;1.13;;;;;;;;;;4971333;28;20227;-74
2022/07/27 10:58:38;;;;;;;2.88;1.17;;;;;;;;;;4965400;28;20233;-74
2022/07/27 11:01:07;;;;;;;3.80;1.15;;;;;;;;;;4976690;28;20209;-74
2022/07/27 11:03:46;;;;;;;3.05;1.05;;;;;;;;;;4976417;28;20714;-73
2022/07/27 11:06:20;;;;;;;5.13;1.60;;;;;;;;;;4971261;28;20198;-74
2022/07/27 11:09:10;;;;;;;7.43;1.60;;;;;;;;;;4977455;28;20202;-74
2022/07/27 11:11:59;;;;;;;2.97;1.20;;;;;;;;;;4978458;28;20202;-74
2022/07/27 11:14:29;;;;;;;4.03;1.10;;;;;;;;;;4977902;28;20690;-73
2022/07/27 11:16:59;;;;;;;5.90;1.40;;;;;;;;;;4970636;28;20683;-74
2022/07/27 11:19:52;;;;;;;4.30;1.25;;;;;;;;;;4977195;28;20229;-74
2022/07/27 11:22:29;;;;;;;2.22;0.90;;;;;;;;;;4970162;28;20213;-74
2022/07/27 11:25:19;;;;;;;1.90;1.10;;;;;;;;;;4977615;28;20229;-74
2022/07/27 11:27:48;;;;;;;3.28;1.30;;;;;;;;;;4963566;28;20696;-76
2022/07/27 11:30:23;;;;;;;2.75;1.00;;;;;;;;;;4963116;28;20710;-75
2022/07/27 11:32:52;;;;;;;2.38;1.08;;;;;;;;;;4977419;28;20212;-74
2022/07/27 11:35:21;;;;;;;3.92;1.08;;;;;;;;;;4970822;28;20314;-75
2022/07/27 11:37:59;;;;;;;2.00;1.02;;;;;;;;;;4975865;28;20229;-74
2022/07/27 11:40:29;;;;;;;2.45;1.02;;;;;;;;;;4975293;28;20216;-75
2022/07/27 11:43:36;;;;;;;2.80;1.20;;;;;;;;;;4958066;29;20209;-74
2022/07/27 11:46:12;;;;;;;2.47;1.40;;;;;;;;;;4967084;28;20227;-74
2022/07/27 11:48:46;;;;;;;2.63;0.82;;;;;;;;;;4977317;28;20285;-74
2022/07/27 11:51:34;;;;;;;1.92;1.23;;;;;;;;;;4973075;28;20217;-74
2022/07/27 11:54:04;;;;;;;6.25;1.30;;;;;;;;;;4977397;28;20268;-74
2022/07/27 11:56:34;;;;;;;4.80;0.90;;;;;;;;;;4975045;28;20230;-74
2022/07/27 11:59:07;;;;;;;4.20;1.08;;;;;;;;;;4976516;28;20563;-74
2022/07/27 12:01:37;;;;;;;1.83;0.93;;;;;;;;;;4974929;28;20216;-74
2022/07/27 12:04:11;;;;;;;2.83;0.80;;;;;;;;;;4969972;28;20229;-75
2022/07/27 12:06:41;;;;;;;0.50;0.50;;;;;;;;;;4969631;28;20222;-74
2022/07/27 12:09:11;;;;;;;0.68;0.50;;;;;;;;;;4965535;28;20686;-74
2022/07/27 12:11:52;;;;;;;1.65;0.40;;;;;;;;;;4965274;28;20213;-75
2022/07/27 12:14:27;;;;;;;1.98;0.50;;;;;;;;;;4974323;28;20690;-74
2022/07/27 12:17:07;;;;;;;1.20;0.50;;;;;;;;;;4975074;28;20232;-74
2022/07/27 12:19:35;;;;;;;1.70;0.63;;;;;;;;;;4975272;28;20627;-75
2022/07/27 12:22:04;;;;;;;2.03;0.90;;;;;;;;;;4957546;29;20605;-74
2022/07/27 12:24:33;;;;;;;2.65;0.80;;;;;;;;;;4969683;28;20229;-74
2022/07/27 12:27:04;;;;;;;0.85;0.70;;;;;;;;;;4970188;28;20762;-74
2022/07/27 12:29:34;;;;;;;1.48;1.10;;;;;;;;;;4969941;28;20685;-74
2022/07/27 12:32:04;;;;;;;1.92;1.00;;;;;;;;;;4973711;28;20252;-74
2022/07/27 12:34:33;;;;;;;3.17;0.98;;;;;;;;;;4976505;28;20206;-74
2022/07/27 12:37:01;;;;;;;2.28;1.00;;;;;;;;;;4973660;28;20637;-74
2022/07/27 12:39:31;;;;;;;3.08;1.10;;;;;;;;;;4962940;28;20203;-74
2022/07/27 12:42:06;;;;;;;3.15;1.27;;;;;;;;;;4972310;28;20610;-73
2022/07/27 12:44:35;;;;;;;4.00;1.33;;;;;;;;;;4961687;28;20198;-74
2022/07/27 12:50:03;;;;;;;4.72;1.20;;;;;;;;;;4966393;28;20202;-74
2022/07/27 12:52:35;;;;;;;3.60;1.27;;;;;;;;;;4957421;29;20202;-74
2022/07/27 12:55:04;;;;;;;6.18;1.30;;;;;;;;;;4964306;28;20236;-74
2022/07/27 12:57:33;;;;;;;3.25;1.13;;;;;;;;;;4974319;28;20240;-74
2022/07/27 13:00:23;;;;;;;3.97;1.17;;;;;;;;;;4957838;28;20560;-75
2022/07/27 13:03:00;;;;;;;2.78;1.20;;;;;;;;;;4975255;28;20721;-74
2022/07/27 13:05:29;;;;;;;3.38;1.30;;;;;;;;;;4974751;28;20198;-74
2022/07/27 13:07:58;;;;;;;2.53;1.25;;;;;;;;;;4968061;28;20228;-74
2022/07/27 13:10:27;;;;;;;3.45;1.08;;;;;;;;;;4967294;28;20257;-74
2022/07/27 13:12:57;;;;;;;2.28;1.13;;;;;;;;;;4616106;28;10000208;-75
2022/07/27 13:15:26;;;;;;;3.25;1.13;;;;;;;;;;4967102;28;20304;-75
2022/07/27 13:17:55;;;;;;;3.85;1.15;;;;;;;;;;4973233;28;20769;-75
2022/07/27 13:20:23;;;;;;;5.07;1.40;;;;;;;;;;4962160;28;20209;-75
2022/07/27 13:22:53;;;;;;;2.50;1.10;;;;;;;;;;4972938;28;20217;-75
2022/07/27 13:25:22;;;;;;;6.13;1.40;;;;;;;;;;4973021;28;20206;-75
2022/07/27 13:27:51;;;;;;;3.40;1.40;;;;;;;;;;4971931;28;20217;-75
2022/07/27 13:30:20;;;;;;;3.33;1.23;;;;;;;;;;4971832;28;20292;-75
2022/07/27 13:32:49;;;;;;;3.05;1.10;;;;;;;;;;4973448;28;20214;-75
2022/07/27 13:35:17;;;;;;;3.22;1.20;;;;;;;;;;4962195;28;20206;-75
2022/07/27 13:37:46;;;;;;;2.70;1.38;;;;;;;;;;4957666;28;20225;-75
2022/07/27 13:40:14;;;;;;;2.22;1.23;;;;;;;;;;4972376;28;20206;-75
2022/07/27 13:42:43;;;;;;;2.95;1.23;;;;;;;;;;4971547;28;20865;-75
2022/07/27 13:45:12;;;;;;;3.35;1.17;;;;;;;;;;4969124;28;20675;-75
2022/07/27 13:47:41;;;;;;;3.72;1.20;;;;;;;;;;4971282;28;20232;-75
2022/07/27 13:50:11;;;;;;;2.58;1.08;;;;;;;;;;4971561;28;20214;-76
2022/07/27 13:52:47;;;;;;;3.17;1.30;;;;;;;;;;4954951;28;20925;-75
2022/07/27 13:55:16;;;;;;;4.75;1.40;;;;;;;;;;4971823;28;20297;-75
2022/07/27 13:57:45;;;;;;;3.35;1.27;;;;;;;;;;4970693;28;20230;-76
2022/07/27 14:00:14;;;;;;;5.55;1.30;;;;;;;;;;4970551;28;20210;-75
2022/07/27 14:02:44;;;;;;;3.22;1.25;;;;;;;;;;4971761;28;20686;-74
2022/07/27 14:05:13;;;;;;;3.13;1.20;;;;;;;;;;4972060;28;20256;-75
2022/07/27 14:07:43;;;;;;;2.05;1.02;;;;;;;;;;4970731;28;20228;-76
2022/07/27 14:13:02;;;;;;;2.75;1.42;;;;;;;;;;4964981;28;20701;-75
2022/07/27 14:15:35;;;;;;;2.05;1.38;;;;;;;;;;4966742;28;20308;-76
2022/07/27 14:18:23;;;;;;;1.33;1.00;;;;;;;;;;4968610;28;20329;-75
2022/07/27 14:20:51;;;;;;;2.00;1.10;;;;;;;;;;4968058;28;20206;-75
2022/07/27 14:23:20;;;;;;;3.00;1.20;;;;;;;;;;4954349;28;20600;-75
2022/07/27 14:25:48;;;;;;;3.45;1.27;;;;;;;;;;4971315;28;20260;-75
2022/07/27 14:28:17;;;;;;;3.50;1.40;;;;;;;;;;4971677;28;20233;-75
2022/07/27 14:30:45;;;;;;;5.82;1.60;;;;;;;;;;4969607;28;20599;-75
2022/07/27 14:33:13;;;;;;;3.65;1.40;;;;;;;;;;4968552;28;20221;-75
2022/07/27 14:35:43;;;;;;;2.90;1.40;;;;;;;;;;4958767;28;20202;-75
2022/07/27 14:38:12;;;;;;;3.03;1.33;;;;;;;;;;4972068;28;20225;-74
2022/07/27 14:40:52;;;;;;;3.95;1.33;;;;;;;;;;4972397;28;20545;-74
2022/07/27 14:43:21;;;;;;;6.03;1.60;;;;;;;;;;4974660;28;20197;-75
2022/07/27 14:45:49;;;;;;;10.32;2.13;;;;;;;;;;4973264;28;20563;-75
2022/07/27 14:48:18;;;;;;;3.72;1.23;;;;;;;;;;4974003;28;20222;-74
2022/07/27 14:51:05;;;;;;;3.47;1.58;;;;;;;;;;4973980;28;20643;-76
2022/07/27 14:53:34;;;;;;;2.28;1.40;;;;;;;;;;4962599;28;20569;-74
2022/07/27 14:56:02;;;;;;;2.33;1.30;;;;;;;;;;4975039;28;20210;-75
2022/07/27 14:58:31;;;;;;;3.20;1.40;;;;;;;;;;4969506;28;20293;-75
2022/07/27 15:01:00;;;;;;;3.15;1.42;;;;;;;;;;4973530;28;20201;-75
2022/07/27 15:03:29;;;;;;;3.95;1.52;;;;;;;;;;4972926;28;20208;-75
2022/07/27 15:05:57;;;;;;;2.97;1.40;;;;;;;;;;4971138;28;20596;-74
2022/07/27 15:08:27;;;;;;;3.33;1.40;;;;;;;;;;4971039;28;20229;-74
2022/07/27 15:10:56;;;;;;;3.05;1.70;;;;;;;;;;4971557;28;20280;-75
2022/07/27 15:13:24;;;;;;;3.33;1.38;;;;;;;;;;4967088;28;20210;-73